Cheikh El Mokrani — C6WD5 — position and weather

sailwx.info

Track history (hours):
 
Tides and Currents Weather Stations Pressure Air Temp Water Temp Dewpoint Dewpoint Depression Visibility Wind Speed Wind Dir Waves Ship Positions

Cheikh El Mokrani

Last reported at 2015-Jan-28 21:33 UTC. Time now 2015-Jan-29 00:20 UTC.
Position N 39°30' E 001°28'.

Length 220 m; draft 8.2 m.

Type: Ship (hazmat cat D). MMSI: 309979000.

Date/timePositionNaut miles runAvg speedWind from/ knotsBaromVisibWave heightAir tempDewpointWater temp
2015-Jan-28 21:33N 39°30' E 001°28'1615.9
2015-Jan-28 20:34N 39°43' E 001°40'1615.8
2015-Jan-28 19:33N 39°56' E 001°52'1615.9
2015-Jan-28 18:33N 40°09' E 002°04'1615.9
2015-Jan-28 17:33N 40°22' E 002°17'1615.5
2015-Jan-28 16:33N 40°34' E 002°29'1615.5
2015-Jan-28 15:33N 40°46' E 002°42'1615.7
2015-Jan-28 14:33N 40°55' E 002°59'1616.3
2015-Jan-28 13:34N 41°05' E 003°16'1918.0
2015-Jan-28 12:30N 41°19' E 003°33'1515.0
2015-Jan-28 11:30N 41°32' E 003°44'2216.8
2015-Jan-28 10:11N 41°52' E 003°56'1015.5
2015-Jan-28 09:31N 42°02' E 004°01'2116.2
2015-Jan-28 08:14N 42°21' E 004°11'6116.7
2015-Jan-28 04:34N 43°11' E 004°60'1312.5
2015-Jan-28 03:33N 43°23' E 004°56'5 4.4
2015-Jan-28 02:25N 43°27' E 004°51'0 0.0
2015-Jan-28 01:31N 43°27' E 004°51'0 0.0
2015-Jan-28 00:31N 43°27' E 004°51'0 0.0
2015-Jan-27 23:31N 43°27' E 004°51'0 0.0
2015-Jan-27 22:31N 43°27' E 004°51'0 0.0
2015-Jan-27 21:31N 43°27' E 004°51'0 0.0
2015-Jan-27 20:31N 43°27' E 004°51'0 0.0
2015-Jan-27 19:31N 43°27' E 004°51'0 0.0
2015-Jan-27 18:31N 43°27' E 004°51'0 0.0
2015-Jan-27 17:31N 43°27' E 004°51'0 0.0
2015-Jan-27 16:31N 43°27' E 004°51'0 0.0
2015-Jan-27 15:31N 43°27' E 004°51'0 0.0
2015-Jan-27 14:31N 43°27' E 004°51'0 0.0
2015-Jan-27 13:31N 43°27' E 004°51'0 0.0
2015-Jan-27 12:31N 43°27' E 004°51'0 0.0
2015-Jan-27 11:31N 43°27' E 004°51'0 0.0
2015-Jan-27 10:31N 43°27' E 004°51'0 0.0
2015-Jan-27 09:31N 43°27' E 004°51'0 0.0
2015-Jan-27 08:31N 43°27' E 004°51'0 0.0
2015-Jan-27 07:31N 43°27' E 004°51'0 0.0
2015-Jan-27 06:28N 43°27' E 004°51'0 0.0
2015-Jan-27 05:31N 43°27' E 004°51'0 0.0
2015-Jan-27 04:31N 43°27' E 004°51'0 0.0
2015-Jan-27 03:31N 43°27' E 004°51'0 0.0
2015-Jan-27 02:31N 43°27' E 004°51'0 0.0
2015-Jan-27 01:31N 43°27' E 004°51'0 0.0
2015-Jan-27 00:31N 43°27' E 004°51'0 0.0
2015-Jan-26 23:31N 43°27' E 004°51'0 0.0
2015-Jan-26 22:31N 43°27' E 004°51'0 0.0
2015-Jan-26 21:33N 43°27' E 004°51'2 2.0
2015-Jan-26 20:33N 43°25' E 004°52'7 7.0
2015-Jan-26 19:33N 43°20' E 004°59'8 8.0
2015-Jan-26 18:33N 43°12' E 005°02'1312.4
2015-Jan-26 17:31N 42°60' E 005°00'1414.5
2015-Jan-26 16:33N 42°49' E 004°49'1514.6
2015-Jan-26 15:33N 42°37' E 004°37'1414.0
2015-Jan-26 14:33N 42°26' E 004°25'1313.1
2015-Jan-26 13:33N 42°16' E 004°13'1312.4
2015-Jan-26 12:33N 42°06' E 004°04'1212.3
2015-Jan-26 11:34N 41°56' E 003°54'1211.9
2015-Jan-26 10:33N 41°46' E 003°46'1211.7
2015-Jan-26 09:33N 41°37' E 003°36'1312.8
2015-Jan-26 08:33N 41°27' E 003°24'1413.0
2015-Jan-26 07:30N 41°16' E 003°13'1313.3
2015-Jan-26 06:32N 41°06' E 003°03'1313.7
2015-Jan-26 05:33N 40°56' E 002°52'1515.1
2015-Jan-26 04:33N 40°44' E 002°39'1716.5
2015-Jan-26 03:33N 40°30' E 002°26'1616.4
2015-Jan-26 02:33N 40°17' E 002°13'1615.7
2015-Jan-26 01:33N 40°05' E 002°01'1615.7
2015-Jan-26 00:33N 39°53' E 001°48'1515.0
2015-Jan-25 23:33N 39°41' E 001°36'1915.1
2015-Jan-25 22:17N 39°26' E 001°21'1114.6
2015-Jan-25 21:33N 39°17' E 001°13'3515.2
2015-Jan-25 19:13N 38°46' E 000°50'  
Track history (hours):
 
Tides and Currents Weather Stations Pressure Air Temp Water Temp Dewpoint Dewpoint Depression Visibility Wind Speed Wind Dir Waves Ship Positions

Cheikh El Mokrani

Last reported at 2015-Jan-28 21:33 UTC. Time now 2015-Jan-29 00:20 UTC.
Position N 39°30' E 001°28'.

Length 220 m; draft 8.2 m.

Type: Ship (hazmat cat D). MMSI: 309979000.

Date/timePositionNaut miles runAvg speedWind from/ knotsBaromVisibWave heightAir tempDewpointWater temp
2015-Jan-28 21:33N 39°30' E 001°28'1615.9
2015-Jan-28 20:34N 39°43' E 001°40'1615.8
2015-Jan-28 19:33N 39°56' E 001°52'1615.9
2015-Jan-28 18:33N 40°09' E 002°04'1615.9
2015-Jan-28 17:33N 40°22' E 002°17'1615.5
2015-Jan-28 16:33N 40°34' E 002°29'1615.5
2015-Jan-28 15:33N 40°46' E 002°42'1615.7
2015-Jan-28 14:33N 40°55' E 002°59'1616.3
2015-Jan-28 13:34N 41°05' E 003°16'1918.0
2015-Jan-28 12:30N 41°19' E 003°33'1515.0
2015-Jan-28 11:30N 41°32' E 003°44'2216.8
2015-Jan-28 10:11N 41°52' E 003°56'1015.5
2015-Jan-28 09:31N 42°02' E 004°01'2116.2
2015-Jan-28 08:14N 42°21' E 004°11'6116.7
2015-Jan-28 04:34N 43°11' E 004°60'1312.5
2015-Jan-28 03:33N 43°23' E 004°56'5 4.4
2015-Jan-28 02:25N 43°27' E 004°51'0 0.0
2015-Jan-28 01:31N 43°27' E 004°51'0 0.0
2015-Jan-28 00:31N 43°27' E 004°51'0 0.0
2015-Jan-27 23:31N 43°27' E 004°51'0 0.0
2015-Jan-27 22:31N 43°27' E 004°51'0 0.0
2015-Jan-27 21:31N 43°27' E 004°51'0 0.0
2015-Jan-27 20:31N 43°27' E 004°51'0 0.0
2015-Jan-27 19:31N 43°27' E 004°51'0 0.0
2015-Jan-27 18:31N 43°27' E 004°51'0 0.0
2015-Jan-27 17:31N 43°27' E 004°51'0 0.0
2015-Jan-27 16:31N 43°27' E 004°51'0 0.0
2015-Jan-27 15:31N 43°27' E 004°51'0 0.0
2015-Jan-27 14:31N 43°27' E 004°51'0 0.0
2015-Jan-27 13:31N 43°27' E 004°51'0 0.0
2015-Jan-27 12:31N 43°27' E 004°51'0 0.0
2015-Jan-27 11:31N 43°27' E 004°51'0 0.0
2015-Jan-27 10:31N 43°27' E 004°51'0 0.0
2015-Jan-27 09:31N 43°27' E 004°51'0 0.0
2015-Jan-27 08:31N 43°27' E 004°51'0 0.0
2015-Jan-27 07:31N 43°27' E 004°51'0 0.0
2015-Jan-27 06:28N 43°27' E 004°51'0 0.0
2015-Jan-27 05:31N 43°27' E 004°51'0 0.0
2015-Jan-27 04:31N 43°27' E 004°51'0 0.0
2015-Jan-27 03:31N 43°27' E 004°51'0 0.0
2015-Jan-27 02:31N 43°27' E 004°51'0 0.0
2015-Jan-27 01:31N 43°27' E 004°51'0 0.0
2015-Jan-27 00:31N 43°27' E 004°51'0 0.0
2015-Jan-26 23:31N 43°27' E 004°51'0 0.0
2015-Jan-26 22:31N 43°27' E 004°51'0 0.0
2015-Jan-26 21:33N 43°27' E 004°51'2 2.0
2015-Jan-26 20:33N 43°25' E 004°52'7 7.0
2015-Jan-26 19:33N 43°20' E 004°59'8 8.0
2015-Jan-26 18:33N 43°12' E 005°02'1312.4
2015-Jan-26 17:31N 42°60' E 005°00'1414.5
2015-Jan-26 16:33N 42°49' E 004°49'1514.6
2015-Jan-26 15:33N 42°37' E 004°37'1414.0
2015-Jan-26 14:33N 42°26' E 004°25'1313.1
2015-Jan-26 13:33N 42°16' E 004°13'1312.4
2015-Jan-26 12:33N 42°06' E 004°04'1212.3
2015-Jan-26 11:34N 41°56' E 003°54'1211.9
2015-Jan-26 10:33N 41°46' E 003°46'1211.7
2015-Jan-26 09:33N 41°37' E 003°36'1312.8
2015-Jan-26 08:33N 41°27' E 003°24'1413.0
2015-Jan-26 07:30N 41°16' E 003°13'1313.3
2015-Jan-26 06:32N 41°06' E 003°03'1313.7
2015-Jan-26 05:33N 40°56' E 002°52'1515.1
2015-Jan-26 04:33N 40°44' E 002°39'1716.5
2015-Jan-26 03:33N 40°30' E 002°26'1616.4
2015-Jan-26 02:33N 40°17' E 002°13'1615.7
2015-Jan-26 01:33N 40°05' E 002°01'1615.7
2015-Jan-26 00:33N 39°53' E 001°48'1515.0
2015-Jan-25 23:33N 39°41' E 001°36'1915.1
2015-Jan-25 22:17N 39°26' E 001°21'1114.6
2015-Jan-25 21:33N 39°17' E 001°13'3515.2
2015-Jan-25 19:13N 38°46' E 000°50'  

Dump ship's entire track history